Time;durP1;ratioP1;P1;durP2;ratioP2;P2;SDS_P1;SDS_P2;PMS_P1;PMS_P2;Temp;Humidity;BMP_temperature;BMP_pressure;BME280_temperature;BME280_humidity;BME280_pressure;Samples;Min_cycle;Max_cycle;Signal;HPM_P1;HPM_P2
2023/06/21 00:01:08;;;;;;;14.00;9.50;;;;;;;16.65;100.00;100654.42;105566;1256;71673;-44
2023/06/21 00:03:36;;;;;;;15.70;9.30;;;;;;;16.67;100.00;100652.97;105561;1257;64093;-44
2023/06/21 00:06:05;;;;;;;12.20;9.20;;;;;;;16.69;100.00;100647.32;105591;1260;71406;-45
2023/06/21 00:08:33;;;;;;;11.30;9.50;;;;;;;16.71;100.00;100645.86;105631;1257;61658;-46
2023/06/21 00:11:01;;;;;;;10.00;9.00;;;;;;;16.71;100.00;100647.41;105542;1260;59609;-46
2023/06/21 00:13:29;;;;;;;13.30;9.00;;;;;;;16.71;100.00;100647.25;105166;1263;72089;-45
2023/06/21 00:15:57;;;;;;;11.90;8.70;;;;;;;16.69;100.00;100650.81;105279;1256;64461;-45
2023/06/21 00:18:25;;;;;;;14.30;9.20;;;;;;;16.68;100.00;100648.77;105581;1260;72594;-47
2023/06/21 00:20:59;;;;;;;10.20;8.60;;;;;;;16.69;100.00;100650.13;105583;1258;60447;-45
2023/06/21 00:49:16;;;;;;;13.10;8.30;;;;;;;16.71;100.00;100667.98;102872;1295;600197;-45
2023/06/21 00:51:44;;;;;;;9.30;8.20;;;;;;;16.71;100.00;100667.62;105636;1258;60392;-43
2023/06/21 00:54:16;;;;;;;12.60;8.60;;;;;;;16.72;100.00;100666.52;105608;1263;59114;-45
2023/06/21 00:56:43;;;;;;;11.50;8.20;;;;;;;16.74;100.00;100664.53;105688;1260;70787;-44
2023/06/21 00:59:11;;;;;;;9.50;7.90;;;;;;;16.75;100.00;100661.54;105668;1260;64007;-44
2023/06/21 01:01:40;;;;;;;15.20;7.80;;;;;;;16.77;100.00;100663.72;105822;1254;71429;-45
2023/06/21 01:04:08;;;;;;;12.20;8.20;;;;;;;16.78;100.00;100665.74;105704;1251;406606;-44
2023/06/21 01:06:48;;;;;;;9.10;8.20;;;;;;;16.77;100.00;100667.88;105962;1254;59298;-44
2023/06/21 01:09:31;;;;;;;11.70;8.50;;;;;;;16.75;100.00;100671.80;105877;1251;72222;-45
2023/06/21 01:12:37;;;;;;;16.80;8.10;;;;;;;16.74;100.00;100671.52;105946;1257;64015;-44
2023/06/21 01:15:32;;;;;;;12.90;9.10;;;;;;;16.73;100.00;100675.58;105470;1251;72657;-44
2023/06/21 01:17:59;;;;;;;11.70;8.40;;;;;;;16.73;100.00;100677.31;105918;1255;60417;-43
2023/06/21 01:20:29;;;;;;;9.00;8.10;;;;;;;16.71;100.00;100682.42;105977;1257;59519;-44
2023/06/21 01:23:06;;;;;;;8.50;7.70;;;;;;;16.71;100.00;100687.15;105936;1251;71861;-43
2023/06/21 01:26:32;;;;;;;16.00;8.80;;;;;;;16.71;100.00;100693.24;105968;1251;65265;-44
2023/06/21 01:29:03;;;;;;;9.00;8.10;;;;;;;16.73;100.00;100693.34;105501;1261;72665;-45
2023/06/21 01:31:31;;;;;;;11.10;8.40;;;;;;;16.73;100.00;100692.30;105492;1258;61669;-44
2023/06/21 01:33:59;;;;;;;9.00;7.80;;;;;;;16.70;100.00;100689.44;105600;1257;59548;-45
2023/06/21 01:36:27;;;;;;;17.50;8.10;;;;;;;16.67;100.00;100689.04;105822;1251;71795;-45
2023/06/21 01:38:56;;;;;;;10.40;7.80;;;;;;;16.63;100.00;100688.49;105901;1256;63888;-45
2023/06/21 01:41:25;;;;;;;8.90;8.00;;;;;;;16.60;100.00;100685.15;105881;1251;72312;-45
2023/06/21 01:43:56;;;;;;;11.30;8.30;;;;;;;16.57;100.00;100685.80;105871;1254;60374;-44
2023/06/21 01:46:25;;;;;;;15.00;8.20;;;;;;;16.55;100.00;100688.83;105862;1254;59605;-45
2023/06/21 01:48:53;;;;;;;13.90;7.80;;;;;;;16.54;100.00;100695.80;105899;1253;73096;-45
2023/06/21 01:51:22;;;;;;;11.70;8.20;;;;;;;16.53;100.00;100697.08;105806;1254;65320;-45
2023/06/21 01:53:50;;;;;;;13.10;8.90;;;;;;;16.51;100.00;100698.21;105678;1258;70415;-45
2023/06/21 01:56:17;;;;;;;10.10;8.50;;;;;;;16.49;100.00;100699.14;105704;1259;61614;-44
2023/06/21 01:58:46;;;;;;;15.20;8.60;;;;;;;16.48;100.00;100699.55;105674;1254;59699;-45
2023/06/21 02:01:15;;;;;;;27.00;9.50;;;;;;;16.46;100.00;100704.66;105751;1254;71841;-45
2023/06/21 02:03:48;;;;;;;14.10;9.50;;;;;;;16.45;100.00;100707.33;105682;1254;64025;-44
2023/06/21 02:06:16;;;;;;;13.70;9.40;;;;;;;16.44;100.00;100707.00;105920;1254;72653;-45
2023/06/21 02:08:44;;;;;;;11.10;9.50;;;;;;;16.43;100.00;100715.59;105706;1254;60729;-45
2023/06/21 02:11:13;;;;;;;19.30;10.20;;;;;;;16.44;100.00;100716.77;105735;1254;59529;-45
2023/06/21 02:13:40;;;;;;;11.20;10.00;;;;;;;16.44;100.00;100714.86;105650;1260;73061;-45
2023/06/21 02:16:08;;;;;;;17.80;9.90;;;;;;;16.43;100.00;100715.23;105706;1254;65161;-45
2023/06/21 02:18:36;;;;;;;15.10;10.50;;;;;;;16.44;100.00;100718.87;105854;1254;72658;-44
2023/06/21 02:21:04;;;;;;;12.90;10.70;;;;;;;16.44;100.00;100718.70;105713;1253;60435;-45
2023/06/21 02:23:32;;;;;;;13.60;11.00;;;;;;;16.44;100.00;100711.88;105720;1259;59635;-45
2023/06/21 02:25:59;;;;;;;13.10;9.90;;;;;;;16.47;100.00;100717.54;105878;1254;71485;-45
2023/06/21 02:28:27;;;;;;;17.30;10.90;;;;;;;16.50;100.00;100722.95;105855;1257;64044;-44
2023/06/21 02:30:55;;;;;;;15.80;10.70;;;;;;;16.53;100.00;100716.95;105694;1257;70439;-44
2023/06/21 02:33:25;;;;;;;18.00;11.10;;;;;;;16.57;100.00;100719.57;105871;1263;60439;-45
2023/06/21 02:35:53;;;;;;;14.90;10.20;;;;;;;16.63;100.00;100721.60;105791;1257;59641;-44
2023/06/21 02:38:20;;;;;;;11.40;9.70;;;;;;;16.69;100.00;100716.67;105887;1254;71790;-45
2023/06/21 02:40:49;;;;;;;16.10;10.50;;;;;;;16.75;100.00;100712.95;105870;1254;64089;-45
2023/06/21 02:43:17;;;;;;;12.60;10.60;;;;;;;16.80;100.00;100714.30;105718;1258;71390;-45
2023/06/21 02:45:45;;;;;;;16.20;10.70;;;;;;;16.85;100.00;100712.03;105907;1254;60699;-45
2023/06/21 02:48:13;;;;;;;18.40;9.60;;;;;;;16.90;100.00;100708.83;105860;1257;60189;-45
2023/06/21 02:50:41;;;;;;;15.00;10.00;;;;;;;16.96;100.00;100708.80;105829;1254;71899;-45
2023/06/21 02:53:09;;;;;;;22.40;9.80;;;;;;;17.03;100.00;100708.17;105871;1255;64017;-45
2023/06/21 02:55:38;;;;;;;12.40;10.20;;;;;;;17.07;100.00;100707.46;105789;1254;72403;-45
2023/06/21 02:58:05;;;;;;;18.40;10.20;;;;;;;17.11;100.00;100710.14;105793;1254;60758;-45
2023/06/21 03:00:33;;;;;;;13.40;10.10;;;;;;;17.18;100.00;100711.06;105723;1257;60689;-45
2023/06/21 03:03:02;;;;;;;13.70;10.20;;;;;;;17.22;100.00;100710.37;105824;1254;72275;-45
2023/06/21 03:05:30;;;;;;;11.00;9.90;;;;;;;17.24;100.00;100712.00;105749;1254;63899;-45
2023/06/21 03:08:00;;;;;;;14.50;10.50;;;;;;;17.25;100.00;100710.22;105855;1257;71481;-45
2023/06/21 03:10:29;;;;;;;17.50;11.80;;;;;;;17.27;100.00;100708.58;105658;1257;60431;-44
2023/06/21 03:12:57;;;;;;;13.70;10.20;;;;;;;17.31;100.00;100707.02;105859;1256;59695;-45
2023/06/21 03:15:25;;;;;;;15.20;10.50;;;;;;;17.31;100.00;100708.61;105892;1254;72231;-44
2023/06/21 03:17:54;;;;;;;14.60;10.30;;;;;;;17.33;100.00;100706.41;105666;1259;64066;-45
2023/06/21 03:20:24;;;;;;;12.00;10.80;;;;;;;17.36;100.00;100704.73;105917;1256;72492;-45
2023/06/21 03:22:53;;;;;;;15.20;11.20;;;;;;;17.37;100.00;100706.57;105703;1257;62146;-44
2023/06/21 03:25:21;;;;;;;17.20;11.10;;;;;;;17.40;100.00;100708.57;105818;1256;59638;-44
2023/06/21 03:27:50;;;;;;;14.60;11.70;;;;;;;17.42;100.00;100710.22;105894;1254;72107;-44
2023/06/21 03:30:18;;;;;;;13.40;11.10;;;;;;;17.43;100.00;100713.30;105948;1256;64104;-45
2023/06/21 03:32:46;;;;;;;11.80;10.60;;;;;;;17.47;100.00;100714.91;105806;1254;72510;-45
2023/06/21 03:35:18;;;;;;;12.40;10.50;;;;;;;17.50;100.00;100713.48;105832;1254;61659;-44
2023/06/21 03:37:50;;;;;;;16.90;11.20;;;;;;;17.54;100.00;100714.05;105705;1254;59663;-44
2023/06/21 03:40:30;;;;;;;14.20;11.50;;;;;;;17.58;100.00;100710.42;105882;1253;71794;-43
2023/06/21 03:42:58;;;;;;;12.80;11.10;;;;;;;17.68;100.00;100715.21;105884;1257;65086;-43
2023/06/21 03:45:26;;;;;;;17.30;11.10;;;;;;;17.75;100.00;100720.10;105693;1254;71419;-44
2023/06/21 03:47:59;;;;;;;14.00;11.30;;;;;;;17.79;100.00;100718.73;105892;1254;61791;-44
2023/06/21 03:52:33;;;;;;;15.20;11.90;;;;;;;17.90;100.00;100724.70;102694;1292;600946;-43
2023/06/21 03:55:05;;;;;;;18.80;11.70;;;;;;;17.96;100.00;100721.48;104925;1270;61926;-43
2023/06/21 03:57:34;;;;;;;18.40;12.10;;;;;;;18.04;100.00;100722.90;104875;1267;59966;-44
2023/06/21 04:00:14;;;;;;;16.60;11.80;;;;;;;18.14;100.00;100721.05;105691;1255;72166;-43
2023/06/21 04:02:42;;;;;;;17.80;12.10;;;;;;;18.23;100.00;100720.99;105664;1254;62920;-45
2023/06/21 04:05:10;;;;;;;15.40;12.00;;;;;;;18.31;100.00;100721.81;105545;1260;224151;-45
2023/06/21 04:07:38;;;;;;;17.80;11.50;;;;;;;18.38;100.00;100723.93;105878;1254;60394;-44
2023/06/21 04:10:12;;;;;;;13.00;11.40;;;;;;;18.54;100.00;100729.85;105685;1256;59396;-46
2023/06/21 04:12:40;;;;;;;13.30;11.50;;;;;;;18.72;100.00;100732.84;105767;1251;72168;-44
2023/06/21 04:15:09;;;;;;;14.30;12.00;;;;;;;18.88;100.00;100732.63;105773;1252;63904;-45
2023/06/21 04:17:38;;;;;;;20.30;11.10;;;;;;;19.07;100.00;100734.33;105920;1253;72634;-44
2023/06/21 04:20:10;;;;;;;13.20;10.20;;;;;;;19.25;100.00;100732.02;105931;1255;61655;-45
2023/06/21 04:22:40;;;;;;;19.30;10.20;;;;;;;19.33;100.00;100731.98;105969;1251;59927;-43
2023/06/21 04:25:09;;;;;;;14.70;9.50;;;;;;;19.38;100.00;100732.08;105952;1251;73104;-43
2023/06/21 04:27:45;;;;;;;25.90;9.90;;;;;;;19.44;100.00;100735.26;105775;1257;65159;-42
2023/06/21 04:30:14;;;;;;;15.20;9.90;;;;;;;19.52;100.00;100735.37;105726;1251;72611;-43
2023/06/21 04:32:45;;;;;;;22.00;10.00;;;;;;;19.64;100.00;100741.61;105904;1254;60840;-43
2023/06/21 04:35:16;;;;;;;14.10;9.80;;;;;;;19.74;100.00;100744.05;105980;1251;59620;-43
2023/06/21 04:37:47;;;;;;;16.50;9.30;;;;;;;19.88;100.00;100751.77;105950;1256;71823;-43
2023/06/21 04:40:17;;;;;;;9.70;8.70;;;;;;;20.06;100.00;100750.66;105952;1254;64162;-43
2023/06/21 04:42:47;;;;;;;16.30;9.60;;;;;;;20.24;100.00;100757.76;105968;1256;72421;-43
2023/06/21 04:45:16;;;;;;;15.40;9.10;;;;;;;20.40;100.00;100771.96;106000;1252;59765;-43
2023/06/21 04:47:47;;;;;;;11.90;8.30;;;;;;;20.57;100.00;100779.97;105902;1252;59819;-43
2023/06/21 04:50:16;;;;;;;10.90;7.60;;;;;;;20.79;100.00;100787.55;105903;1252;70945;-43
2023/06/21 04:52:47;;;;;;;13.60;7.90;;;;;;;21.00;100.00;100802.70;105869;1254;64251;-43
2023/06/21 04:55:18;;;;;;;15.30;8.40;;;;;;;21.24;100.00;100824.81;105733;1257;71349;-43
2023/06/21 04:57:47;;;;;;;13.50;7.90;;;;;;;21.48;100.00;100846.64;105885;1256;59985;-44
2023/06/21 05:00:19;;;;;;;11.90;7.40;;;;;;;21.62;100.00;100878.66;105859;1256;60032;-43
2023/06/21 05:02:47;;;;;;;14.20;8.40;;;;;;;21.70;100.00;100923.00;105896;1256;73003;-43
2023/06/21 05:05:15;;;;;;;9.10;8.10;;;;;;;21.70;100.00;100996.02;105878;1257;64097;-43
2023/06/21 05:07:43;;;;;;;10.60;7.80;;;;;;;21.73;100.00;101064.92;105889;1257;71389;-44
2023/06/21 05:10:11;;;;;;;10.70;8.40;;;;;;;21.69;100.00;101128.33;105879;1254;59661;-44
2023/06/21 05:12:39;;;;;;;9.20;7.50;;;;;;;21.64;100.00;101174.80;105885;1256;61085;-43
2023/06/21 05:15:08;;;;;;;9.60;7.60;;;;;;;21.60;100.00;101206.23;105892;1257;71845;-43
2023/06/21 05:17:36;;;;;;;12.40;7.20;;;;;;;21.61;100.00;101221.47;105745;1257;65183;-43
2023/06/21 05:20:05;;;;;;;11.40;7.20;;;;;;;21.57;100.00;101236.63;105827;1253;71759;-43
2023/06/21 05:22:33;;;;;;;11.60;7.80;;;;;;;21.51;100.00;101239.55;105870;1257;60027;-44
2023/06/21 05:25:02;;;;;;;8.40;7.40;;;;;;;21.42;100.00;101238.79;105690;1257;59459;-43
2023/06/21 05:27:30;;;;;;;8.70;7.80;;;;;;;21.32;100.00;101227.33;105909;1257;73025;-44
2023/06/21 05:29:58;;;;;;;10.00;7.50;;;;;;;21.31;100.00;101223.70;105873;1257;65300;-43
2023/06/21 05:32:26;;;;;;;12.80;6.40;;;;;;;21.36;100.00;101227.82;105702;1253;72644;-44
2023/06/21 05:34:54;;;;;;;11.40;7.40;;;;;;;21.44;100.00;101227.08;105862;1254;59644;-45
2023/06/21 05:37:22;;;;;;;10.70;7.30;;;;;;;21.56;100.00;101225.95;105606;1257;59749;-44
2023/06/21 05:39:51;;;;;;;10.60;8.50;;;;;;;21.68;100.00;101220.74;105812;1253;71716;-44
2023/06/21 05:42:18;;;;;;;8.80;7.90;;;;;;;21.82;100.00;101208.77;105700;1257;64018;-45
2023/06/21 05:44:46;;;;;;;12.00;7.60;;;;;;;21.89;100.00;101188.24;105845;1254;71435;-43
2023/06/21 05:47:14;;;;;;;9.70;7.50;;;;;;;21.97;100.00;101174.09;105899;1254;59667;-45
2023/06/21 05:49:42;;;;;;;13.00;8.90;;;;;;;22.03;100.00;101158.12;105731;1254;60014;-44
2023/06/21 05:52:10;;;;;;;9.40;8.50;;;;;;;22.07;100.00;101139.09;105701;1253;72997;-43
2023/06/21 05:54:41;;;;;;;9.30;8.40;;;;;;;22.13;100.00;101105.94;105670;1255;64232;-44
2023/06/21 05:57:09;;;;;;;10.20;7.30;;;;;;;22.17;100.00;101068.27;105896;1257;71433;-45
2023/06/21 05:59:37;;;;;;;9.80;7.80;;;;;;;22.14;100.00;101009.40;105709;1253;59693;-44
2023/06/21 06:02:05;;;;;;;11.00;7.30;;;;;;;22.13;100.00;100992.23;105896;1253;60532;-44
2023/06/21 06:04:34;;;;;;;9.00;7.60;;;;;;;22.02;100.00;100924.84;105901;1253;71812;-44
2023/06/21 06:07:01;;;;;;;8.10;7.40;;;;;;;21.94;100.00;100904.40;105852;1258;65138;-44
2023/06/21 06:09:30;;;;;;;8.90;7.40;;;;;;;21.96;100.00;100932.55;105876;1253;72745;-44
2023/06/21 06:11:57;;;;;;;8.30;7.60;;;;;;;21.98;100.00;100933.52;105871;1253;59720;-44
2023/06/21 06:14:25;;;;;;;10.70;7.00;;;;;;;22.01;100.00;100928.23;105839;1257;59529;-44
2023/06/21 06:16:53;;;;;;;7.60;6.60;;;;;;;22.06;100.00;100879.63;105725;1256;71312;-44
2023/06/21 06:19:20;;;;;;;8.10;5.40;;;;;;;22.05;100.00;100791.30;105859;1257;65449;-44
2023/06/21 06:21:48;;;;;;;7.30;5.50;;;;;;;22.02;100.00;100709.64;105658;1254;72572;-44
2023/06/21 06:24:16;;;;;;;6.50;5.70;;;;;;;22.02;100.00;100701.04;105689;1253;59624;-44
2023/06/21 06:26:44;;;;;;;7.00;6.20;;;;;;;22.02;100.00;100701.41;105681;1253;59538;-44
2023/06/21 06:29:11;;;;;;;8.70;6.10;;;;;;;22.08;100.00;100726.84;105700;1253;71756;-44
2023/06/21 06:31:39;;;;;;;11.10;6.90;;;;;;;22.10;100.00;100660.49;105807;1253;65739;-44
2023/06/21 06:34:07;;;;;;;9.20;6.60;;;;;;;22.07;100.00;100624.63;105772;1254;71400;-44
2023/06/21 06:36:35;;;;;;;11.40;6.40;;;;;;;22.14;100.00;100671.65;105675;1253;60441;-44
2023/06/21 06:39:02;;;;;;;7.00;5.80;;;;;;;22.17;100.00;100658.45;105834;1257;59528;-44
2023/06/21 06:41:30;;;;;;;6.60;6.00;;;;;;;22.25;100.00;100642.83;105743;1253;72368;-44
2023/06/21 06:44:05;;;;;;;7.00;6.30;;;;;;;22.35;100.00;100652.15;105856;1253;64606;-43
2023/06/21 06:46:33;;;;;;;6.40;5.90;;;;;;;22.46;100.00;100610.53;105884;1254;72635;-44
2023/06/21 06:49:01;;;;;;;7.50;6.70;;;;;;;22.51;100.00;100534.98;105897;1255;59718;-44
2023/06/21 06:51:29;;;;;;;9.50;6.10;;;;;;;22.52;100.00;100463.37;105858;1253;59966;-43
2023/06/21 06:53:56;;;;;;;6.00;5.50;;;;;;;22.56;100.00;100440.73;105857;1254;72039;-44
2023/06/21 06:56:27;;;;;;;6.00;5.30;;;;;;;22.60;100.00;100384.92;105849;1253;63889;-43
2023/06/21 06:58:55;;;;;;;6.40;5.70;;;;;;;22.70;100.00;100385.83;105835;1253;71845;-43
2023/06/21 07:01:22;;;;;;;9.40;6.30;;;;;;;22.78;100.00;100366.09;105842;1257;59708;-43
2023/06/21 07:03:50;;;;;;;7.80;7.00;;;;;;;22.82;100.00;100345.17;105737;1253;60018;-43
2023/06/21 07:06:18;;;;;;;8.40;7.10;;;;;;;22.90;100.00;100344.13;105893;1253;71818;-44
2023/06/21 07:08:46;;;;;;;8.40;7.60;;;;;;;23.07;100.00;100347.98;105891;1253;65446;-44
2023/06/21 07:11:14;;;;;;;8.90;7.00;;;;;;;23.33;100.00;100354.09;105672;1253;70390;-44
2023/06/21 07:13:42;;;;;;;17.00;8.00;;;;;;;23.60;100.00;100344.33;105674;1256;59740;-44
2023/06/21 07:16:10;;;;;;;18.60;7.30;;;;;;;23.94;100.00;100356.90;105829;1252;59542;-44
2023/06/21 07:18:38;;;;;;;17.80;7.50;;;;;;;24.30;100.00;100373.38;105832;1253;71811;-44
2023/06/21 07:21:05;;;;;;;12.20;6.60;;;;;;;24.66;100.00;100407.84;105743;1253;64097;-44
2023/06/21 07:23:33;;;;;;;14.90;7.30;;;;;;;24.98;100.00;100464.65;105901;1252;72619;-44
2023/06/21 07:26:02;;;;;;;11.90;7.10;;;;;;;25.27;100.00;100517.28;105811;1254;59730;-44
2023/06/21 07:28:30;;;;;;;9.30;7.50;;;;;;;25.37;100.00;100568.36;105868;1253;59647;-44
2023/06/21 07:30:59;;;;;;;13.20;8.60;;;;;;;25.51;100.00;100589.02;105828;1257;70908;-44
2023/06/21 07:33:27;;;;;;;11.60;9.40;;;;;;;25.74;100.00;100585.58;105925;1253;63921;-44
2023/06/21 07:35:56;;;;;;;12.00;8.40;;;;;;;25.90;100.00;100598.66;105880;1253;71539;-44
2023/06/21 07:38:26;;;;;;;13.00;7.60;;;;;;;25.91;100.00;100623.72;105896;1252;59673;-44
2023/06/21 07:40:54;;;;;;;14.10;7.80;;;;;;;25.98;100.00;100616.21;105694;1256;59596;-44
2023/06/21 07:43:22;;;;;;;12.60;7.40;;;;;;;26.08;100.00;100617.34;105853;1253;71900;-44
2023/06/21 07:45:50;;;;;;;7.70;7.00;;;;;;;26.16;100.00;100620.77;105697;1257;64055;-44
2023/06/21 07:48:40;;;;;;;8.30;7.00;;;;;;;26.17;100.00;100632.25;105831;1253;73096;-44
2023/06/21 07:51:07;;;;;;;10.10;6.60;;;;;;;26.06;100.00;100641.36;105840;1256;60103;-44
2023/06/21 07:53:35;;;;;;;11.70;6.80;;;;;;;25.97;100.00;100651.52;105686;1254;60012;-44
2023/06/21 07:56:03;;;;;;;10.00;6.00;;;;;;;25.92;100.00;100660.54;105685;1253;73458;-44
2023/06/21 07:58:32;;;;;;;7.10;5.90;;;;;;;25.89;100.00;100659.18;105884;1253;65296;-44
2023/06/21 08:00:59;;;;;;;14.80;6.60;;;;;;;25.71;100.00;100684.98;105822;1257;72686;-45
2023/06/21 08:03:27;;;;;;;11.90;6.30;;;;;;;25.80;100.00;100667.52;105705;1253;60675;-45
2023/06/21 08:05:55;;;;;;;9.50;6.80;;;;;;;26.03;100.00;100647.64;105621;1256;60432;-48
2023/06/21 08:08:23;;;;;;;8.40;5.90;;;;;;;26.22;100.00;100640.83;105698;1253;72624;-45
2023/06/21 08:10:51;;;;;;;8.00;7.10;;;;;;;26.27;100.00;100645.38;105690;1253;65281;-46
2023/06/21 08:13:22;;;;;;;20.20;6.00;;;;;;;26.29;100.00;100660.45;105564;1253;72705;-45
2023/06/21 08:15:51;;;;;;;8.80;6.20;;;;;;;26.33;100.00;100671.20;105663;1253;60480;-44
2023/06/21 08:18:18;;;;;;;9.90;6.60;;;;;;;26.39;100.00;100653.77;105787;1253;60444;-45
2023/06/21 08:20:47;;;;;;;7.30;6.20;;;;;;;26.41;100.00;100645.99;105706;1253;73133;-44
2023/06/21 08:23:14;;;;;;;8.80;6.20;;;;;;;26.37;100.00;100626.39;105732;1253;64551;-45
2023/06/21 08:25:45;;;;;;;6.90;6.10;;;;;;;26.10;100.00;100660.33;105847;1253;71497;-43
2023/06/21 08:28:13;;;;;;;10.60;5.60;;;;;;;25.89;100.00;100672.27;105884;1253;60477;-43
2023/06/21 08:30:41;;;;;;;8.70;6.30;;;;;;;25.70;100.00;100681.73;105856;1259;60405;-44
2023/06/21 08:33:09;;;;;;;11.00;7.30;;;;;;;25.64;100.00;100698.08;105861;1253;72333;-43
2023/06/21 08:35:40;;;;;;;12.30;6.50;;;;;;;25.83;100.00;100683.13;105834;1257;64097;-44
2023/06/21 08:38:08;;;;;;;6.70;6.00;;;;;;;26.12;100.00;100664.28;105901;1253;71945;-43
2023/06/21 08:40:54;;;;;;;;;;;;;;;26.37;97.24;100636.23;105694;1257;60506;-43
2023/06/21 08:43:22;;;;;;;7.30;6.40;;;;;;;26.42;100.00;100679.55;105766;1257;60428;-43
2023/06/21 08:45:50;;;;;;;10.40;6.90;;;;;;;26.56;99.91;100677.54;105867;1253;72567;-43
2023/06/21 08:48:18;;;;;;;8.30;6.50;;;;;;;26.65;100.00;100700.63;105727;1257;65376;-43
2023/06/21 08:50:45;;;;;;;10.60;7.20;;;;;;;26.83;100.00;100689.25;105679;1253;71446;-44
2023/06/21 08:53:13;;;;;;;12.20;7.20;;;;;;;26.94;100.00;100704.11;105660;1254;60527;-44
2023/06/21 08:55:40;;;;;;;11.20;7.30;;;;;;;27.13;99.68;100693.34;105660;1257;60519;-43
2023/06/21 08:58:16;;;;;;;7.20;6.50;;;;;;;27.25;98.08;100672.17;105878;1253;73795;-44
2023/06/21 09:00:47;;;;;;;9.10;6.10;;;;;;;27.36;99.26;100691.04;105713;1253;64464;-43
2023/06/21 09:03:32;;;;;;;6.70;6.10;;;;;;;27.50;85.92;100645.88;105871;1252;71515;-43
2023/06/21 09:06:05;;;;;;;6.80;6.30;;;;;;;27.57;82.33;100653.86;105714;1256;60560;-44
2023/06/21 09:08:33;;;;;;;6.40;5.80;;;;;;;27.71;87.32;100683.59;105759;1253;60483;-43
2023/06/21 09:11:01;;;;;;;6.00;5.40;;;;;;;27.89;74.81;100588.52;105733;1253;72664;-44
2023/06/21 09:13:29;;;;;;;6.30;5.70;;;;;;;28.05;68.30;100556.69;105720;1260;64085;-43
2023/06/21 09:15:58;;;;;;;6.90;6.10;;;;;;;28.15;69.87;100614.66;105693;1253;71705;-44
2023/06/21 09:18:26;;;;;;;6.50;5.90;;;;;;;28.27;69.73;100621.23;105889;1253;60478;-43
2023/06/21 09:20:54;;;;;;;6.50;5.60;;;;;;;28.27;66.71;100583.63;105716;1255;60343;-44
2023/06/21 09:23:22;;;;;;;6.90;6.20;;;;;;;28.36;68.62;100629.45;105886;1256;73897;-44
2023/06/21 09:25:50;;;;;;;6.00;5.20;;;;;;;28.62;68.53;100626.73;105721;1253;64341;-44
2023/06/21 09:28:17;;;;;;;8.50;5.70;;;;;;;28.86;66.61;100597.10;105703;1253;72597;-43
2023/06/21 09:30:45;;;;;;;6.30;5.80;;;;;;;28.90;64.88;100578.42;105676;1258;60691;-43
2023/06/21 09:33:13;;;;;;;7.00;6.30;;;;;;;28.92;66.28;100619.43;105875;1256;60323;-43
2023/06/21 09:35:42;;;;;;;12.70;6.80;;;;;;;28.98;66.59;100620.80;105777;1254;73884;-44
2023/06/21 09:38:19;;;;;;;8.40;7.60;;;;;;;29.11;65.94;100608.77;105704;1259;63927;-44
2023/06/21 09:40:47;;;;;;;7.60;6.90;;;;;;;29.38;66.53;100621.27;105818;1253;72683;-43
2023/06/21 09:43:15;;;;;;;7.70;7.10;;;;;;;29.74;62.35;100529.55;105848;1253;60536;-44
2023/06/21 09:45:43;;;;;;;7.40;6.50;;;;;;;29.88;60.68;100513.30;105867;1256;60497;-44
2023/06/21 09:48:15;;;;;;;8.20;7.50;;;;;;;29.68;59.94;100514.86;105730;1253;72652;-44
2023/06/21 09:50:44;;;;;;;8.50;7.50;;;;;;;29.52;60.82;100551.42;105872;1257;65285;-44
2023/06/21 09:53:11;;;;;;;8.00;7.20;;;;;;;29.75;62.22;100579.42;105744;1253;72229;-44
2023/06/21 09:55:43;;;;;;;14.60;7.90;;;;;;;29.91;61.88;100568.74;105882;1257;60415;-44
2023/06/21 09:58:11;;;;;;;13.20;7.70;;;;;;;29.99;62.07;100581.70;105914;1257;60342;-44
2023/06/21 10:00:39;;;;;;;9.10;8.10;;;;;;;29.90;60.81;100563.70;105724;1253;72608;-44
2023/06/21 10:03:07;;;;;;;11.70;8.40;;;;;;;29.88;57.79;100488.39;105859;1254;63897;-44
2023/06/21 10:05:35;;;;;;;9.50;8.60;;;;;;;29.82;57.39;100495.33;105855;1253;71451;-44
2023/06/21 10:08:03;;;;;;;8.70;7.80;;;;;;;29.86;58.58;100540.29;105843;1259;60534;-43
2023/06/21 10:10:34;;;;;;;11.90;8.40;;;;;;;29.92;59.22;100554.65;105862;1253;60684;-43
2023/06/21 10:13:02;;;;;;;12.90;8.40;;;;;;;30.04;60.62;100594.17;105817;1257;73851;-43
2023/06/21 10:15:30;;;;;;;12.70;8.70;;;;;;;30.21;58.31;100527.63;105747;1258;64001;-44
2023/06/21 10:17:58;;;;;;;7.70;7.00;;;;;;;30.21;57.24;100500.35;105693;1253;71458;-43
2023/06/21 10:20:33;;;;;;;7.50;6.70;;;;;;;30.11;53.51;100365.67;105703;1253;60455;-44
2023/06/21 10:23:01;;;;;;;6.50;5.90;;;;;;;30.10;53.18;100379.77;105846;1255;60352;-44
2023/06/21 10:25:29;;;;;;;7.40;5.80;;;;;;;30.23;49.61;100166.62;105644;1253;73739;-45
2023/06/21 10:27:59;;;;;;;5.60;5.10;;;;;;;30.28;47.46;100013.08;105321;1253;64119;-43
2023/06/21 10:30:27;;;;;;;11.40;6.10;;;;;;;30.31;49.47;100217.70;105679;1253;72301;-48
2023/06/21 10:32:55;;;;;;;9.10;5.80;;;;;;;30.52;48.96;100189.66;105678;1258;60483;-43
2023/06/21 10:35:24;;;;;;;18.00;6.30;;;;;;;30.84;48.12;100106.80;105875;1256;60460;-43
2023/06/21 10:38:01;;;;;;;7.10;5.80;;;;;;;31.23;50.31;100288.41;105704;1253;72570;-43
2023/06/21 10:40:30;;;;;;;14.90;5.90;;;;;;;31.63;51.32;100366.90;105903;1257;65329;-44
2023/06/21 10:42:58;;;;;;;8.60;7.20;;;;;;;31.92;49.46;100218.50;105889;1253;71375;-43
2023/06/21 10:45:28;;;;;;;13.10;7.40;;;;;;;31.85;47.97;100107.44;105722;1253;60524;-43
2023/06/21 10:47:56;;;;;;;13.80;7.50;;;;;;;31.32;46.78;100036.52;105746;1258;60518;-44
2023/06/21 10:50:24;;;;;;;9.90;7.50;;;;;;;30.77;47.98;100181.82;105756;1258;74168;-44
2023/06/21 10:52:53;;;;;;;7.00;6.50;;;;;;;30.80;49.77;100358.31;105839;1257;63953;-44
2023/06/21 10:55:21;;;;;;;8.10;7.40;;;;;;;31.00;48.63;100238.83;105857;1253;72710;-43
2023/06/21 10:57:53;;;;;;;8.00;7.20;;;;;;;31.24;49.21;100300.39;105734;1253;61083;-44
2023/06/21 11:00:22;;;;;;;8.00;7.20;;;;;;;31.68;49.11;100275.41;105914;1252;60723;-44
2023/06/21 11:02:51;;;;;;;8.80;6.70;;;;;;;32.08;49.11;100276.58;105751;1258;72597;-43
2023/06/21 11:05:20;;;;;;;8.10;7.30;;;;;;;32.34;46.19;100001.15;105891;1257;63929;-43
2023/06/21 11:07:56;;;;;;;7.80;7.10;;;;;;;31.94;44.69;99860.06;105890;1259;72671;-43
2023/06/21 11:10:49;;;;;;;7.90;6.60;;;;;;;31.54;45.65;99993.59;105755;1253;60516;-43
2023/06/21 11:13:17;;;;;;;10.00;7.30;;;;;;;31.24;46.02;100063.92;105867;1253;60508;-43
2023/06/21 11:15:46;;;;;;;7.60;6.90;;;;;;;31.05;46.82;100150.34;105783;1254;73837;-43
2023/06/21 11:18:20;;;;;;;9.60;7.10;;;;;;;31.07;46.34;100121.30;109581;1253;67361;-44
2023/06/21 11:20:56;;;;;;;7.80;7.00;;;;;;;30.96;47.86;100278.25;109521;1253;72747;-43
2023/06/21 11:23:25;;;;;;;12.60;7.20;;;;;;;30.72;48.55;100364.74;109618;1253;60102;-43
2023/06/21 11:26:02;;;;;;;7.70;7.00;;;;;;;30.35;49.39;100442.89;109615;1252;59981;-43
2023/06/21 11:28:33;;;;;;;12.30;7.30;;;;;;;30.14;51.96;100634.45;109553;1252;72560;-43
2023/06/21 11:31:12;;;;;;;8.20;7.40;;;;;;;30.46;51.91;100549.76;109601;1252;65305;-43
2023/06/21 11:33:49;;;;;;;8.50;7.30;;;;;;;30.86;51.69;100493.98;109592;1253;73622;-43
2023/06/21 11:36:20;;;;;;;7.90;7.10;;;;;;;31.11;50.34;100381.98;109533;1253;60065;-44
2023/06/21 11:38:52;;;;;;;10.60;6.80;;;;;;;31.53;50.74;100389.84;109555;1252;60482;-44
2023/06/21 11:41:45;;;;;;;10.10;7.30;;;;;;;31.90;48.99;100262.88;109468;1253;72453;-43
2023/06/21 12:13:03;;;;;;;;;;;;;;;28.44;57.57;100720.48;102569;1294;615385;-44
2023/06/21 12:15:31;;;;;;;33.10;9.70;;;;;;;27.58;70.31;100834.52;105153;1269;60322;-43